createdAt,value
2019-04-22T00:10:12.045Z,96849.77
2019-04-22T00:20:22.956Z,96849.97
2019-04-22T00:30:40.817Z,96846.78
2019-04-22T00:40:45.044Z,96834.91
2019-04-22T00:51:05.784Z,96831.78
2019-04-22T01:01:12.147Z,96818.39
2019-04-22T01:11:26.629Z,96816.85
2019-04-22T01:21:28.764Z,96816.94
2019-04-22T01:31:18.158Z,96819.62
2019-04-22T01:41:58.085Z,96800.03
2019-04-22T01:52:13.677Z,96782.20
2019-04-22T02:02:02.991Z,96769.16
2019-04-22T02:12:17.698Z,96753.87
2019-04-22T02:22:38.317Z,96734.27
2019-04-22T02:42:43.479Z,96715.91
2019-04-22T02:52:50.407Z,96707.66
2019-04-22T03:13:21.342Z,96704.47
2019-04-22T03:34:17.755Z,96679.17
2019-04-22T03:54:02.827Z,96687.69
2019-04-22T04:04:09.023Z,96679.86
2019-04-22T04:24:32.866Z,96688.69
2019-04-22T04:34:50.563Z,96700.43
2019-04-22T04:44:48.803Z,96720.17
2019-04-22T04:54:56.982Z,96718.91
2019-04-22T05:15:04.215Z,96716.36
2019-04-22T05:25:06.000Z,96729.76
2019-04-22T05:35:25.057Z,96738.17
2019-04-22T05:45:21.628Z,96751.91
2019-04-22T06:05:45.317Z,96754.37
2019-04-22T06:15:44.138Z,96759.20
2019-04-22T06:26:09.850Z,96763.74
2019-04-22T06:46:17.206Z,96770.67
2019-04-22T06:56:22.357Z,96769.22
2019-04-22T07:06:35.450Z,96771.27
2019-04-22T07:16:43.583Z,96776.31
2019-04-22T07:26:54.386Z,96779.30
2019-04-22T07:37:10.996Z,96791.40
2019-04-22T07:47:13.925Z,96801.42
2019-04-22T07:57:20.187Z,96814.20
2019-04-22T08:07:33.139Z,96827.77
2019-04-22T08:40:07.794Z,96842.98
2019-04-22T09:10:43.575Z,96860.47
2019-04-22T09:25:48.464Z,96881.14
2019-04-22T09:41:18.791Z,96902.81
2019-04-22T09:56:31.587Z,96880.74
2019-04-22T10:11:47.078Z,96906.25
2019-04-22T10:26:54.919Z,96891.69
2019-04-22T10:41:38.959Z,96899.81
2019-04-22T10:56:48.682Z,96921.95
2019-04-22T11:12:04.528Z,96928.05
2019-04-22T11:27:07.014Z,96948.70
2019-04-22T11:42:16.332Z,96959.95
2019-04-22T11:57:25.377Z,96925.11
2019-04-22T12:12:51.991Z,96931.22
2019-04-22T12:27:59.260Z,96921.28
2019-04-22T13:00:38.426Z,96896.59
2019-04-22T13:15:46.804Z,96860.84
2019-04-22T13:46:17.794Z,96857.64
2019-04-22T14:01:26.449Z,96848.80
2019-04-22T14:16:33.427Z,96857.14
2019-04-22T14:31:40.675Z,96841.44
2019-04-22T14:47:15.672Z,96849.03
2019-04-22T15:01:56.014Z,96849.66
2019-04-22T15:17:06.885Z,96847.38
2019-04-22T15:32:15.616Z,96840.02
2019-04-22T15:47:22.933Z,96856.41
2019-04-22T16:02:29.840Z,96879.87
2019-04-22T16:17:37.855Z,96861.75
2019-04-22T16:32:45.453Z,96866.59
2019-04-22T16:47:53.731Z,96883.78
2019-04-22T17:03:13.172Z,96869.16
2019-04-22T17:18:21.543Z,96889.27
2019-04-22T17:33:28.880Z,96884.23
2019-04-22T17:48:57.813Z,96875.56
2019-04-22T18:03:52.930Z,96886.41
2019-04-22T18:19:15.425Z,96903.86
2019-04-22T18:34:16.910Z,96907.92
2019-04-22T18:49:31.935Z,96912.56
2019-04-22T19:04:54.956Z,96920.83
2019-04-22T19:20:16.974Z,96938.33
2019-04-22T19:35:17.398Z,96927.16
2019-04-22T19:50:39.027Z,96937.16
2019-04-22T20:05:43.558Z,96939.05
2019-04-22T20:20:53.973Z,96931.55
2019-04-22T20:35:58.330Z,96924.67
2019-04-22T20:51:10.990Z,96918.00
2019-04-22T21:06:14.958Z,96928.62
2019-04-22T21:21:31.792Z,96934.60
2019-04-22T21:36:56.289Z,96927.23
2019-04-22T21:51:49.580Z,96919.27
2019-04-22T22:06:45.060Z,96898.21
2019-04-22T22:22:40.168Z,96876.96
2019-04-22T22:37:06.425Z,96878.23
2019-04-22T22:52:45.337Z,96869.48
2019-04-22T23:07:38.990Z,96853.78
2019-04-22T23:22:30.252Z,96845.95
2019-04-22T23:37:47.591Z,96842.44
2019-04-22T23:52:54.703Z,96824.03
